createdAt,value
2018-10-04T00:01:08.350Z,5.40
2018-10-04T00:02:43.876Z,3.13
2018-10-04T00:04:19.326Z,3.53
2018-10-04T00:05:54.847Z,4.17
2018-10-04T00:07:30.358Z,2.87
2018-10-04T00:09:06.330Z,2.93
2018-10-04T00:10:41.793Z,3.13
2018-10-04T00:12:17.355Z,4.13
2018-10-04T00:13:52.863Z,4.07
2018-10-04T00:15:28.346Z,2.47
2018-10-04T00:17:03.846Z,3.10
2018-10-04T00:18:39.353Z,2.40
2018-10-04T00:20:14.810Z,5.50
2018-10-04T00:21:50.302Z,2.13
2018-10-04T00:23:25.765Z,2.13
2018-10-04T00:25:01.235Z,2.37
2018-10-04T00:26:36.871Z,2.67
2018-10-04T00:28:12.343Z,2.80
2018-10-04T00:29:47.871Z,1.80
2018-10-04T00:31:23.389Z,4.73
2018-10-04T00:32:58.841Z,4.23
2018-10-04T00:34:34.300Z,4.73
2018-10-04T00:36:09.790Z,4.10
2018-10-04T00:37:45.349Z,3.60
2018-10-04T00:39:20.801Z,2.70
2018-10-04T00:40:56.301Z,3.37
2018-10-04T00:42:32.553Z,2.13
2018-10-04T00:44:08.041Z,3.53
2018-10-04T00:45:43.587Z,3.80
2018-10-04T00:47:19.304Z,3.27
2018-10-04T00:48:54.839Z,3.20
2018-10-04T00:50:30.396Z,3.83
2018-10-04T00:52:05.934Z,3.17
2018-10-04T00:53:41.514Z,2.67
2018-10-04T00:55:16.992Z,3.07
2018-10-04T00:56:54.241Z,2.27
2018-10-04T00:58:29.689Z,2.83
2018-10-04T01:00:05.335Z,1.87
2018-10-04T01:01:40.820Z,3.67
2018-10-04T01:03:16.292Z,3.33
2018-10-04T01:04:52.643Z,3.70
2018-10-04T01:06:28.128Z,4.17
2018-10-04T01:08:03.619Z,3.03
2018-10-04T01:09:39.134Z,2.57
2018-10-04T01:11:14.631Z,2.90
2018-10-04T01:12:50.272Z,3.43
2018-10-04T01:14:25.778Z,4.00
2018-10-04T01:16:01.296Z,2.37
2018-10-04T01:17:37.104Z,3.40
2018-10-04T01:19:12.703Z,2.27
2018-10-04T01:20:48.264Z,3.47
2018-10-04T01:22:23.820Z,3.83
2018-10-04T01:23:59.308Z,3.53
2018-10-04T01:25:34.773Z,2.17
2018-10-04T01:27:10.276Z,3.47
2018-10-04T01:28:45.931Z,3.70
2018-10-04T01:30:21.374Z,3.90
2018-10-04T01:31:56.958Z,5.33
2018-10-04T01:33:32.404Z,3.83
2018-10-04T01:35:07.868Z,3.70
2018-10-04T01:36:43.364Z,2.47
2018-10-04T01:38:18.903Z,4.77
2018-10-04T01:39:54.366Z,4.00
2018-10-04T01:41:29.862Z,3.63
2018-10-04T01:43:05.408Z,3.60
2018-10-04T01:44:40.920Z,3.60
2018-10-04T01:46:16.391Z,3.60
2018-10-04T01:47:51.874Z,5.57
2018-10-04T01:49:27.317Z,4.13
2018-10-04T01:51:02.848Z,4.77
2018-10-04T01:52:38.320Z,2.90
2018-10-04T01:54:13.796Z,3.97
2018-10-04T01:55:49.267Z,4.97
2018-10-04T01:57:24.774Z,4.53
2018-10-04T01:59:00.249Z,3.60
2018-10-04T02:00:35.780Z,2.90
2018-10-04T02:02:11.291Z,3.90
2018-10-04T02:03:46.835Z,3.13
2018-10-04T02:05:22.859Z,4.03
2018-10-04T02:06:58.332Z,3.17
2018-10-04T02:08:33.989Z,3.30
2018-10-04T02:10:09.462Z,2.10
2018-10-04T02:11:44.991Z,4.00
2018-10-04T02:13:20.478Z,3.13
2018-10-04T02:14:55.958Z,2.07
2018-10-04T02:16:31.408Z,3.07
2018-10-04T02:18:06.944Z,3.97
2018-10-04T02:19:42.437Z,2.40
2018-10-04T02:21:17.942Z,5.03
2018-10-04T02:22:53.392Z,3.23
2018-10-04T02:24:28.951Z,3.67
2018-10-04T02:26:04.476Z,2.93
2018-10-04T02:27:40.041Z,3.30
2018-10-04T02:29:15.624Z,3.80
2018-10-04T02:30:51.468Z,3.80
2018-10-04T02:32:26.952Z,3.87
2018-10-04T02:34:02.733Z,3.67
2018-10-04T02:35:38.199Z,2.03
2018-10-04T02:37:13.775Z,2.60
2018-10-04T02:38:49.282Z,3.33
2018-10-04T02:40:24.830Z,4.20
2018-10-04T02:42:00.333Z,4.17
2018-10-04T02:43:35.851Z,5.33
2018-10-04T02:45:11.365Z,3.40
2018-10-04T02:46:46.803Z,4.10
2018-10-04T02:48:22.305Z,3.30
2018-10-04T02:49:57.797Z,5.07
2018-10-04T02:51:33.335Z,4.17
2018-10-04T02:53:08.872Z,3.57
2018-10-04T02:54:49.778Z,3.40
2018-10-04T02:56:30.686Z,3.00
2018-10-04T02:58:06.156Z,3.30
2018-10-04T02:59:41.615Z,4.20
2018-10-04T03:01:17.127Z,2.40
2018-10-04T03:02:52.765Z,2.77
2018-10-04T03:04:28.304Z,3.17
2018-10-04T03:06:03.880Z,2.43
2018-10-04T03:07:39.328Z,3.87
2018-10-04T03:09:15.027Z,3.10
2018-10-04T03:10:50.616Z,2.83
2018-10-04T03:12:26.408Z,3.10
2018-10-04T03:14:01.881Z,2.33
2018-10-04T03:15:37.312Z,3.00
2018-10-04T03:17:12.904Z,3.43
2018-10-04T03:18:48.484Z,2.83
2018-10-04T03:20:23.935Z,2.17
2018-10-04T03:21:59.394Z,3.17
2018-10-04T03:23:34.845Z,3.80
2018-10-04T03:25:10.518Z,3.53
2018-10-04T03:26:45.990Z,4.50
2018-10-04T03:28:21.524Z,5.13
2018-10-04T03:29:57.029Z,4.73
2018-10-04T03:31:32.527Z,3.63
2018-10-04T03:33:07.980Z,3.67
2018-10-04T03:34:43.414Z,2.60
2018-10-04T03:36:18.917Z,3.70
2018-10-04T03:37:54.378Z,3.83
2018-10-04T03:39:29.893Z,4.07
2018-10-04T03:41:05.539Z,3.43
2018-10-04T03:42:41.086Z,3.87
2018-10-04T03:44:16.593Z,3.90
2018-10-04T03:45:52.724Z,2.63
2018-10-04T03:47:28.351Z,2.97
2018-10-04T03:49:03.852Z,2.87
2018-10-04T03:50:39.320Z,6.17
2018-10-04T03:52:14.787Z,8.13
2018-10-04T03:53:50.330Z,6.27
2018-10-04T03:55:25.881Z,6.73
2018-10-04T03:57:01.348Z,6.83
2018-10-04T03:58:36.817Z,6.77
2018-10-04T04:00:12.394Z,5.67
2018-10-04T04:01:48.003Z,5.67
2018-10-04T04:03:23.475Z,4.73
2018-10-04T04:04:58.991Z,7.00
2018-10-04T04:06:34.454Z,4.97
2018-10-04T04:08:09.970Z,4.97
2018-10-04T04:09:45.497Z,5.10
2018-10-04T04:11:20.997Z,3.77
2018-10-04T04:12:56.596Z,4.67
2018-10-04T04:14:32.042Z,4.17
2018-10-04T04:16:07.526Z,3.57
2018-10-04T04:17:43.054Z,4.63
2018-10-04T04:19:24.935Z,4.00
2018-10-04T04:21:00.496Z,4.67
2018-10-04T04:22:35.938Z,4.83
2018-10-04T04:24:11.964Z,5.00
2018-10-04T04:25:47.444Z,4.37
2018-10-04T04:27:22.978Z,3.03
2018-10-04T04:28:58.475Z,5.67
2018-10-04T04:30:33.951Z,5.70
2018-10-04T04:32:09.454Z,3.73
2018-10-04T04:33:45.363Z,3.40
2018-10-04T04:35:20.864Z,3.37
2018-10-04T04:36:56.516Z,3.17
2018-10-04T04:38:32.024Z,3.37
2018-10-04T04:40:07.544Z,3.17
2018-10-04T04:41:43.063Z,2.77
2018-10-04T04:43:18.516Z,3.63
2018-10-04T04:44:54.036Z,3.13
2018-10-04T04:46:29.607Z,3.63
2018-10-04T04:48:05.096Z,2.40
2018-10-04T04:49:40.606Z,3.00
2018-10-04T04:51:16.139Z,2.57
2018-10-04T04:52:51.746Z,4.93
2018-10-04T04:55:40.262Z,2.87
2018-10-04T04:57:15.764Z,2.87
2018-10-04T04:58:51.444Z,3.67
2018-10-04T05:00:28.013Z,4.03
2018-10-04T05:02:03.468Z,3.73
2018-10-04T05:03:38.984Z,2.27
2018-10-04T05:05:14.747Z,3.87
2018-10-04T05:06:50.226Z,4.70
2018-10-04T05:08:25.730Z,2.90
2018-10-04T05:10:01.232Z,2.93
2018-10-04T05:11:36.721Z,5.47
2018-10-04T05:13:12.293Z,2.60
2018-10-04T05:14:47.815Z,5.40
2018-10-04T05:16:23.381Z,4.50
2018-10-04T05:17:58.883Z,2.17
2018-10-04T05:19:34.342Z,4.63
2018-10-04T05:21:09.774Z,5.60
2018-10-04T05:22:45.267Z,5.07
2018-10-04T05:24:20.853Z,3.23
2018-10-04T05:25:56.296Z,3.97
2018-10-04T05:27:32.284Z,3.37
2018-10-04T05:29:07.797Z,4.00
2018-10-04T05:30:43.285Z,4.60
2018-10-04T05:32:20.162Z,4.00
2018-10-04T05:33:55.699Z,6.10
2018-10-04T05:35:31.172Z,4.27
2018-10-04T05:37:06.837Z,3.33
2018-10-04T05:38:42.341Z,4.20
2018-10-04T05:40:17.877Z,5.27
2018-10-04T05:41:53.395Z,3.33
2018-10-04T05:43:29.543Z,2.30
2018-10-04T05:45:05.141Z,4.83
2018-10-04T05:46:40.707Z,3.60
2018-10-04T05:48:16.193Z,3.13
2018-10-04T05:49:51.741Z,3.60
2018-10-04T05:51:27.112Z,2.70
2018-10-04T05:53:02.599Z,3.80
2018-10-04T05:54:38.136Z,4.07
2018-10-04T05:56:13.623Z,3.00
2018-10-04T05:57:49.141Z,3.67
2018-10-04T05:59:24.854Z,5.53
2018-10-04T06:01:00.364Z,5.73
2018-10-04T06:02:35.959Z,5.50
2018-10-04T06:04:11.423Z,5.17
2018-10-04T06:05:46.946Z,4.40
2018-10-04T06:07:22.539Z,3.43
2018-10-04T06:08:58.118Z,5.37
2018-10-04T06:10:34.105Z,4.70
2018-10-04T06:12:10.660Z,5.40
2018-10-04T06:13:46.998Z,5.23
2018-10-04T06:15:22.690Z,3.87
2018-10-04T06:16:58.099Z,4.90
2018-10-04T06:18:33.628Z,4.20
2018-10-04T06:20:09.390Z,4.47
2018-10-04T06:21:45.008Z,4.30
2018-10-04T06:23:20.584Z,6.70
2018-10-04T06:24:56.177Z,5.77
2018-10-04T06:26:31.785Z,5.50
2018-10-04T06:28:07.344Z,4.47
2018-10-04T06:29:42.886Z,5.73
2018-10-04T06:31:18.363Z,5.63
2018-10-04T06:32:53.909Z,4.07
2018-10-04T06:34:29.393Z,5.30
2018-10-04T06:36:05.099Z,5.40
2018-10-04T06:37:40.627Z,6.73
2018-10-04T06:39:16.329Z,6.90
2018-10-04T06:40:52.013Z,6.27
2018-10-04T06:42:27.611Z,5.33
2018-10-04T06:44:03.133Z,5.13
2018-10-04T06:45:38.595Z,4.70
2018-10-04T06:47:14.124Z,4.53
2018-10-04T06:48:49.623Z,5.27
2018-10-04T06:50:31.839Z,6.03
2018-10-04T06:52:08.260Z,5.33
2018-10-04T06:53:43.783Z,7.10
2018-10-04T06:55:19.263Z,6.00
2018-10-04T06:56:54.755Z,6.23
2018-10-04T06:58:30.272Z,7.47
2018-10-04T07:00:06.237Z,7.60
2018-10-04T07:01:41.738Z,5.87
2018-10-04T07:03:17.270Z,7.17
2018-10-04T07:04:52.750Z,7.33
2018-10-04T07:06:28.212Z,9.80
2018-10-04T07:08:03.694Z,6.67
2018-10-04T07:09:39.227Z,6.43
2018-10-04T07:11:14.773Z,6.17
2018-10-04T07:12:50.229Z,5.43
2018-10-04T07:14:25.705Z,5.37
2018-10-04T07:16:01.259Z,6.23
2018-10-04T07:17:36.744Z,6.77
2018-10-04T07:19:12.426Z,6.20
2018-10-04T07:20:47.981Z,7.10
2018-10-04T07:22:23.502Z,6.27
2018-10-04T07:23:59.001Z,5.77
2018-10-04T07:25:34.560Z,5.47
2018-10-04T07:27:10.128Z,2.90
2018-10-04T07:28:45.621Z,6.80
2018-10-04T07:30:21.185Z,7.10
2018-10-04T07:31:56.760Z,6.70
2018-10-04T07:33:32.281Z,6.12
2018-10-04T07:35:07.813Z,7.27
2018-10-04T07:36:43.425Z,8.53
2018-10-04T07:38:18.964Z,7.23
2018-10-04T07:39:54.507Z,4.70
2018-10-04T07:41:30.334Z,5.10
2018-10-04T07:43:05.971Z,4.73
2018-10-04T07:44:41.508Z,6.00
2018-10-04T07:46:17.066Z,4.83
2018-10-04T07:47:52.600Z,4.07
2018-10-04T07:49:28.189Z,4.97
2018-10-04T07:51:03.723Z,6.10
2018-10-04T07:52:39.314Z,4.97
2018-10-04T07:54:14.876Z,6.17
2018-10-04T07:55:50.459Z,5.47
2018-10-04T07:57:26.090Z,7.13
2018-10-04T07:59:01.600Z,7.37
2018-10-04T08:00:37.075Z,8.27
2018-10-04T08:02:12.552Z,5.53
2018-10-04T08:03:48.141Z,4.57
2018-10-04T08:05:23.640Z,5.57
2018-10-04T08:06:59.146Z,5.40
2018-10-04T08:08:34.743Z,4.97
2018-10-04T08:10:10.287Z,6.97
2018-10-04T08:11:45.810Z,5.90
2018-10-04T08:13:21.374Z,6.70
2018-10-04T08:14:56.958Z,6.10
2018-10-04T08:16:32.539Z,4.67
2018-10-04T08:18:08.144Z,4.30
2018-10-04T08:19:43.752Z,5.00
2018-10-04T08:21:19.301Z,5.63
2018-10-04T08:22:54.909Z,5.40
2018-10-04T08:24:30.472Z,7.47
2018-10-04T08:26:05.993Z,6.13
2018-10-04T08:27:41.536Z,5.43
2018-10-04T08:29:17.055Z,5.17
2018-10-04T08:30:52.638Z,5.97
2018-10-04T08:32:28.232Z,4.80
2018-10-04T08:34:03.917Z,5.00
2018-10-04T08:35:39.497Z,6.00
2018-10-04T08:37:15.253Z,6.53
2018-10-04T08:38:50.856Z,6.57
2018-10-04T08:40:26.534Z,7.30
2018-10-04T08:42:02.216Z,5.27
2018-10-04T08:43:37.721Z,9.67
2018-10-04T08:47:00.000Z,7.10
2018-10-04T08:48:35.636Z,6.63
2018-10-04T08:50:11.150Z,6.87
2018-10-04T08:51:52.486Z,6.37
2018-10-04T08:53:28.198Z,6.90
2018-10-04T08:55:09.230Z,7.23
2018-10-04T08:56:44.807Z,7.80
2018-10-04T08:58:20.304Z,8.43
2018-10-04T08:59:55.843Z,5.57
2018-10-04T09:01:31.407Z,10.80
2018-10-04T09:03:06.956Z,8.17
2018-10-04T09:04:42.517Z,6.17
2018-10-04T09:06:18.040Z,6.57
2018-10-04T09:07:53.570Z,6.37
2018-10-04T09:09:29.124Z,4.27
2018-10-04T09:11:04.679Z,6.80
2018-10-04T09:12:40.315Z,5.83
2018-10-04T09:14:15.818Z,6.00
2018-10-04T09:15:52.108Z,6.90
2018-10-04T09:17:28.197Z,7.50
2018-10-04T09:19:03.728Z,6.77
2018-10-04T09:20:39.231Z,6.83
2018-10-04T09:22:14.739Z,6.97
2018-10-04T09:23:50.281Z,6.27
2018-10-04T09:25:25.831Z,7.83
2018-10-04T09:27:01.364Z,7.37
2018-10-04T09:28:36.912Z,7.37
2018-10-04T09:30:17.909Z,5.97
2018-10-04T09:31:54.427Z,10.00
2018-10-04T09:33:29.989Z,7.40
2018-10-04T09:35:05.631Z,7.53
2018-10-04T09:36:41.170Z,7.93
2018-10-04T09:38:19.836Z,7.63
2018-10-04T09:39:55.435Z,4.57
2018-10-04T09:41:30.948Z,5.90
2018-10-04T09:43:06.504Z,8.73
2018-10-04T09:44:41.998Z,5.57
2018-10-04T09:46:17.468Z,9.87
2018-10-04T09:47:56.354Z,6.23
2018-10-04T09:49:32.047Z,6.77
2018-10-04T09:51:12.983Z,7.42
2018-10-04T09:52:48.432Z,6.73
2018-10-04T09:55:27.812Z,6.50
2018-10-04T09:57:03.308Z,6.63
2018-10-04T09:58:38.820Z,5.20
2018-10-04T10:01:20.448Z,6.17
2018-10-04T10:03:00.252Z,5.17
2018-10-04T10:04:35.753Z,6.13
2018-10-04T10:06:11.327Z,5.93
2018-10-04T10:07:47.648Z,4.77
2018-10-04T10:09:23.122Z,6.17
2018-10-04T10:10:58.567Z,7.93
2018-10-04T10:12:34.057Z,5.87
2018-10-04T10:14:09.694Z,5.23
2018-10-04T10:15:45.131Z,4.13
2018-10-04T10:17:20.670Z,4.77
2018-10-04T10:18:56.219Z,5.93
2018-10-04T10:20:33.862Z,7.77
2018-10-04T10:22:09.355Z,5.63
2018-10-04T10:23:44.923Z,5.53
2018-10-04T10:25:21.217Z,4.83
2018-10-04T10:26:56.793Z,5.47
2018-10-04T10:28:32.706Z,4.37
2018-10-04T10:30:08.293Z,5.37
2018-10-04T10:31:43.830Z,5.57
2018-10-04T10:33:19.399Z,5.93
2018-10-04T10:34:55.912Z,4.40
2018-10-04T10:36:31.446Z,5.40
2018-10-04T10:38:07.341Z,4.83
2018-10-04T10:39:42.847Z,6.13
2018-10-04T10:41:18.293Z,5.60
2018-10-04T10:42:53.897Z,6.13
2018-10-04T10:44:29.420Z,6.57
2018-10-04T10:46:04.904Z,6.03
2018-10-04T10:47:40.476Z,5.60
2018-10-04T10:49:16.120Z,5.80
2018-10-04T10:50:52.429Z,5.10
2018-10-04T10:52:27.968Z,5.33
2018-10-04T10:54:03.484Z,3.73
2018-10-04T10:55:39.092Z,4.13
2018-10-04T10:57:14.633Z,5.43
2018-10-04T10:58:50.213Z,5.67
2018-10-04T11:00:32.488Z,5.23
2018-10-04T11:02:08.352Z,3.00
2018-10-04T11:03:45.986Z,4.13
2018-10-04T11:05:21.576Z,2.47
2018-10-04T11:06:57.214Z,2.60
2018-10-04T11:08:32.782Z,4.10
2018-10-04T11:10:08.333Z,3.60
2018-10-04T11:11:43.861Z,4.73
2018-10-04T11:13:19.499Z,4.20
2018-10-04T11:14:55.120Z,4.73
2018-10-04T11:16:30.555Z,4.77
2018-10-04T11:18:06.132Z,2.53
2018-10-04T11:19:41.660Z,2.50
2018-10-04T11:21:17.367Z,3.13
2018-10-04T11:22:52.924Z,4.27
2018-10-04T11:24:28.508Z,4.47
2018-10-04T11:26:05.972Z,3.80
2018-10-04T11:27:41.565Z,3.27
2018-10-04T11:29:18.331Z,2.33
2018-10-04T11:30:53.832Z,2.97
2018-10-04T11:32:29.330Z,3.77
2018-10-04T11:34:05.324Z,4.20
2018-10-04T11:35:40.880Z,3.90
2018-10-04T11:37:16.504Z,4.77
2018-10-04T11:38:52.033Z,4.97
2018-10-04T11:40:28.576Z,4.17
2018-10-04T11:42:04.203Z,4.23
2018-10-04T11:43:40.360Z,3.60
2018-10-04T11:45:24.591Z,3.43
2018-10-04T11:47:02.824Z,3.87
2018-10-04T11:48:40.487Z,4.70
2018-10-04T11:50:19.133Z,3.20
2018-10-04T11:51:54.678Z,2.67
2018-10-04T11:53:30.195Z,2.43
2018-10-04T11:55:05.739Z,4.47
2018-10-04T11:56:41.355Z,2.80
2018-10-04T11:58:17.462Z,3.20
2018-10-04T11:59:52.955Z,3.53
2018-10-04T12:01:29.497Z,3.73
2018-10-04T12:03:04.998Z,2.53
2018-10-04T12:04:41.417Z,3.93
2018-10-04T12:06:16.952Z,4.40
2018-10-04T12:07:52.482Z,3.60
2018-10-04T12:09:27.992Z,4.60
2018-10-04T12:11:04.563Z,3.20
2018-10-04T12:12:40.041Z,3.13
2018-10-04T12:14:15.572Z,3.53
2018-10-04T12:15:51.114Z,4.10
2018-10-04T12:17:28.364Z,3.43
2018-10-04T12:19:03.968Z,3.60
2018-10-04T12:20:39.407Z,5.40
2018-10-04T12:22:14.908Z,3.40
2018-10-04T12:23:50.436Z,2.80
2018-10-04T12:25:26.052Z,3.43
2018-10-04T12:27:01.565Z,2.90
2018-10-04T12:28:37.163Z,2.83
2018-10-04T12:30:12.876Z,3.60
2018-10-04T12:31:48.482Z,3.70
2018-10-04T12:33:24.053Z,3.80
2018-10-04T12:34:59.620Z,4.60
2018-10-04T12:36:35.066Z,3.10
2018-10-04T12:38:10.673Z,6.00
2018-10-04T12:39:46.091Z,3.43
2018-10-04T12:41:21.718Z,4.07
2018-10-04T12:42:57.257Z,3.60
2018-10-04T12:44:32.729Z,3.80
2018-10-04T12:46:08.454Z,3.67
2018-10-04T12:47:43.959Z,3.57
2018-10-04T12:49:19.460Z,3.67
2018-10-04T12:50:55.022Z,3.83
2018-10-04T12:52:30.657Z,3.33
2018-10-04T12:54:06.126Z,3.57
2018-10-04T12:55:41.583Z,2.60
2018-10-04T12:57:21.660Z,3.83
2018-10-04T12:58:57.118Z,2.93
2018-10-04T13:00:32.733Z,3.93
2018-10-04T13:02:08.231Z,4.57
2018-10-04T13:03:43.808Z,3.40
2018-10-04T13:05:19.274Z,2.47
2018-10-04T13:06:55.736Z,4.43
2018-10-04T13:08:31.142Z,3.37
2018-10-04T13:10:06.588Z,3.97
2018-10-04T13:11:42.127Z,4.10
2018-10-04T13:13:17.595Z,3.63
2018-10-04T13:14:53.079Z,3.27
2018-10-04T13:16:28.603Z,2.93
2018-10-04T13:18:04.206Z,2.93
2018-10-04T13:19:40.131Z,4.23
2018-10-04T13:21:15.732Z,3.10
2018-10-04T13:22:51.511Z,2.40
2018-10-04T13:24:27.076Z,6.00
2018-10-04T13:26:02.593Z,3.83
2018-10-04T13:27:38.108Z,3.33
2018-10-04T13:29:13.696Z,2.70
2018-10-04T13:30:49.591Z,3.57
2018-10-04T13:32:25.054Z,2.33
2018-10-04T13:34:00.605Z,2.87
2018-10-04T13:35:36.160Z,2.60
2018-10-04T13:37:11.673Z,1.77
2018-10-04T13:38:48.180Z,3.13
2018-10-04T13:40:23.718Z,3.90
2018-10-04T13:41:59.255Z,3.37
2018-10-04T13:43:35.057Z,2.47
2018-10-04T13:45:10.611Z,4.10
2018-10-04T13:46:46.103Z,4.47
2018-10-04T13:48:21.948Z,4.23
2018-10-04T13:49:57.419Z,2.50
2018-10-04T13:51:33.130Z,3.40
2018-10-04T13:53:08.607Z,2.93
2018-10-04T13:54:44.076Z,3.07
2018-10-04T13:56:19.602Z,3.70
2018-10-04T13:57:55.157Z,1.53
2018-10-04T13:59:30.659Z,3.50
2018-10-04T14:01:06.199Z,2.07
2018-10-04T14:02:41.693Z,3.80
2018-10-04T14:04:17.191Z,3.77
2018-10-04T14:05:52.658Z,3.13
2018-10-04T14:07:28.070Z,3.40
2018-10-04T14:09:04.363Z,4.03
2018-10-04T14:10:40.116Z,3.07
2018-10-04T14:12:15.564Z,1.90
2018-10-04T14:13:51.163Z,2.47
2018-10-04T14:15:26.723Z,2.20
2018-10-04T14:17:02.210Z,4.23
2018-10-04T14:18:37.748Z,2.47
2018-10-04T14:20:13.319Z,3.30
2018-10-04T14:21:48.763Z,2.53
2018-10-04T14:23:24.306Z,1.57
2018-10-04T14:24:59.805Z,2.43
2018-10-04T14:26:35.349Z,1.47
2018-10-04T14:28:10.876Z,3.73
2018-10-04T14:29:46.430Z,2.23
2018-10-04T14:31:21.875Z,1.90
2018-10-04T14:32:57.407Z,2.10
2018-10-04T14:34:32.857Z,1.87
2018-10-04T14:36:08.369Z,3.20
2018-10-04T14:37:43.918Z,1.90
2018-10-04T14:39:19.491Z,3.33
2018-10-04T14:40:55.133Z,3.00
2018-10-04T14:42:30.590Z,3.57
2018-10-04T14:44:06.194Z,1.80
2018-10-04T14:45:41.734Z,3.33
2018-10-04T14:47:17.180Z,3.63
2018-10-04T14:48:52.851Z,5.20
2018-10-04T14:50:28.348Z,1.70
2018-10-04T14:52:03.849Z,3.03
2018-10-04T14:53:39.343Z,3.43
2018-10-04T14:55:14.862Z,2.77
2018-10-04T14:56:50.438Z,2.83
2018-10-04T14:58:25.923Z,4.13
2018-10-04T15:00:01.460Z,2.23
2018-10-04T15:01:36.946Z,3.07
2018-10-04T15:03:12.524Z,2.57
2018-10-04T15:04:48.076Z,4.00
2018-10-04T15:06:23.586Z,1.67
2018-10-04T15:07:59.132Z,2.73
2018-10-04T15:09:34.679Z,3.50
2018-10-04T15:11:10.238Z,2.37
2018-10-04T15:12:45.741Z,2.70
2018-10-04T15:14:21.248Z,3.53
2018-10-04T15:15:56.856Z,2.23
2018-10-04T15:17:32.495Z,2.07
2018-10-04T15:19:07.992Z,3.67
2018-10-04T15:20:43.450Z,2.60
2018-10-04T15:22:18.966Z,3.07
2018-10-04T15:23:54.527Z,3.13
2018-10-04T15:25:29.995Z,2.60
2018-10-04T15:27:06.098Z,2.63
2018-10-04T15:28:42.715Z,3.23
2018-10-04T15:30:18.836Z,2.30
2018-10-04T15:31:54.424Z,3.10
2018-10-04T15:33:30.062Z,3.17
2018-10-04T15:35:05.703Z,3.13
2018-10-04T15:36:41.221Z,1.63
2018-10-04T15:38:16.742Z,2.80
2018-10-04T15:39:52.335Z,3.57
2018-10-04T15:41:27.791Z,3.67
2018-10-04T15:43:03.284Z,3.20
2018-10-04T15:44:38.768Z,1.50
2018-10-04T15:46:14.253Z,3.30
2018-10-04T15:47:49.832Z,2.77
2018-10-04T15:49:25.390Z,3.07
2018-10-04T15:51:00.869Z,4.27
2018-10-04T15:52:36.458Z,1.40
2018-10-04T15:54:12.004Z,5.27
2018-10-04T15:55:47.628Z,0.87
2018-10-04T15:57:23.107Z,2.17
2018-10-04T15:58:58.644Z,2.87
2018-10-04T16:00:34.090Z,2.73
2018-10-04T16:02:09.707Z,2.00
2018-10-04T16:03:45.402Z,3.20
2018-10-04T16:05:20.974Z,7.47
2018-10-04T16:06:56.468Z,4.00
2018-10-04T16:08:32.013Z,3.40
2018-10-04T16:10:07.579Z,2.97
2018-10-04T16:11:43.168Z,3.23
2018-10-04T16:13:18.734Z,3.30
2018-10-04T16:14:55.087Z,2.47
2018-10-04T16:16:30.608Z,4.60
2018-10-04T16:18:06.228Z,3.10
2018-10-04T16:19:41.851Z,2.77
2018-10-04T16:21:17.348Z,3.37
2018-10-04T16:22:52.899Z,2.93
2018-10-04T16:24:28.437Z,4.87
2018-10-04T16:26:03.918Z,2.50
2018-10-04T16:27:47.036Z,4.10
2018-10-04T16:29:22.617Z,1.40
2018-10-04T16:30:58.147Z,3.20
2018-10-04T16:32:33.716Z,2.90
2018-10-04T16:34:09.402Z,2.80
2018-10-04T16:35:44.887Z,1.87
2018-10-04T16:37:20.469Z,2.70
2018-10-04T16:38:55.960Z,2.37
2018-10-04T16:40:31.655Z,2.70
2018-10-04T16:42:07.096Z,2.63
2018-10-04T16:43:42.567Z,2.43
2018-10-04T16:45:18.093Z,3.27
2018-10-04T16:46:53.615Z,1.70
2018-10-04T16:48:29.157Z,2.23
2018-10-04T16:50:04.860Z,1.83
2018-10-04T16:51:40.425Z,4.50
2018-10-04T16:53:15.882Z,3.63
2018-10-04T16:54:51.572Z,3.07
2018-10-04T16:56:27.012Z,2.00
2018-10-04T16:58:02.523Z,4.03
2018-10-04T16:59:38.026Z,3.03
2018-10-04T17:01:13.508Z,2.57
2018-10-04T17:02:49.044Z,2.17
2018-10-04T17:04:24.479Z,2.30
2018-10-04T17:05:59.969Z,4.03
2018-10-04T17:07:35.479Z,2.77
2018-10-04T17:09:14.722Z,2.17
2018-10-04T17:10:50.255Z,3.53
2018-10-04T17:12:25.929Z,3.70
2018-10-04T17:14:01.350Z,2.40
2018-10-04T17:15:36.889Z,3.07
2018-10-04T17:17:12.426Z,5.80
2018-10-04T17:18:47.972Z,2.77
2018-10-04T17:20:23.472Z,3.73
2018-10-04T17:21:58.974Z,4.27
2018-10-04T17:23:34.719Z,3.73
2018-10-04T17:25:10.191Z,2.03
2018-10-04T17:26:45.719Z,2.30
2018-10-04T17:28:21.213Z,3.13
2018-10-04T17:29:56.684Z,6.50
2018-10-04T17:31:32.187Z,3.13
2018-10-04T17:33:07.649Z,3.50
2018-10-04T17:34:43.129Z,4.90
2018-10-04T17:36:18.622Z,3.53
2018-10-04T17:37:54.196Z,2.77
2018-10-04T17:39:29.752Z,3.47
2018-10-04T17:41:05.260Z,2.17
2018-10-04T17:42:40.852Z,3.40
2018-10-04T17:44:16.306Z,4.50
2018-10-04T17:45:51.875Z,3.10
2018-10-04T17:47:27.538Z,2.90
2018-10-04T17:49:03.211Z,2.00
2018-10-04T17:50:38.678Z,3.50
2018-10-04T17:52:14.215Z,3.13
2018-10-04T17:53:49.795Z,2.27
2018-10-04T17:55:25.243Z,3.13
2018-10-04T17:57:00.753Z,3.47
2018-10-04T17:58:36.228Z,2.57
2018-10-04T18:00:14.003Z,3.83
2018-10-04T18:01:49.487Z,3.77
2018-10-04T18:03:25.010Z,3.80
2018-10-04T18:05:00.554Z,2.60
2018-10-04T18:06:36.794Z,3.57
2018-10-04T18:08:12.251Z,3.47
2018-10-04T18:09:47.735Z,2.97
2018-10-04T18:11:23.211Z,3.23
2018-10-04T18:12:58.795Z,4.40
2018-10-04T18:14:34.230Z,3.67
2018-10-04T18:16:09.888Z,4.70
2018-10-04T18:17:45.426Z,3.90
2018-10-04T18:19:21.047Z,4.80
2018-10-04T18:20:56.654Z,5.53
2018-10-04T18:22:32.204Z,7.07
2018-10-04T18:24:08.595Z,3.50
2018-10-04T18:25:44.104Z,3.47
2018-10-04T18:27:19.575Z,4.87
2018-10-04T18:28:55.044Z,3.93
2018-10-04T18:30:30.516Z,4.17
2018-10-04T18:32:06.512Z,26.57
2018-10-04T18:33:42.048Z,38.30
2018-10-04T18:35:17.572Z,22.37
2018-10-04T18:36:53.119Z,14.60
2018-10-04T18:38:28.601Z,9.63
2018-10-04T18:40:04.136Z,5.80
2018-10-04T18:41:39.680Z,5.07
2018-10-04T18:43:15.270Z,4.40
2018-10-04T18:44:50.706Z,2.97
2018-10-04T18:46:26.543Z,5.57
2018-10-04T18:48:02.012Z,4.17
2018-10-04T18:49:38.488Z,3.10
2018-10-04T18:51:14.186Z,4.23
2018-10-04T18:52:49.693Z,7.27
2018-10-04T18:54:25.154Z,6.23
2018-10-04T18:56:00.636Z,6.27
2018-10-04T18:57:36.197Z,4.73
2018-10-04T18:59:11.719Z,4.70
2018-10-04T19:00:47.232Z,5.43
2018-10-04T19:02:22.805Z,4.30
2018-10-04T19:03:58.342Z,5.37
2018-10-04T19:05:34.168Z,6.23
2018-10-04T19:07:09.671Z,6.57
2018-10-04T19:08:45.280Z,5.80
2018-10-04T19:10:20.808Z,7.67
2018-10-04T19:11:56.346Z,6.10
2018-10-04T19:13:31.812Z,5.10
2018-10-04T19:15:07.339Z,6.37
2018-10-04T19:16:42.857Z,7.63
2018-10-04T19:18:18.416Z,4.77
2018-10-04T19:19:53.975Z,4.13
2018-10-04T19:21:29.572Z,6.57
2018-10-04T19:23:05.140Z,4.00
2018-10-04T19:24:41.467Z,3.80
2018-10-04T19:26:17.027Z,4.23
2018-10-04T19:27:52.530Z,4.37
2018-10-04T19:29:28.090Z,3.90
2018-10-04T19:31:03.592Z,4.53
2018-10-04T19:32:39.137Z,5.40
2018-10-04T19:34:14.759Z,3.23
2018-10-04T19:35:50.267Z,3.47
2018-10-04T19:37:25.771Z,4.63
2018-10-04T19:39:01.233Z,3.50
2018-10-04T19:40:36.972Z,3.30
2018-10-04T19:42:13.675Z,4.37
2018-10-04T19:43:49.280Z,5.37
2018-10-04T19:45:24.791Z,2.57
2018-10-04T19:47:00.315Z,3.43
2018-10-04T19:48:37.881Z,3.97
2018-10-04T19:50:13.428Z,6.30
2018-10-04T19:51:48.929Z,3.87
2018-10-04T19:53:24.480Z,3.63
2018-10-04T19:54:59.968Z,3.20
2018-10-04T19:56:35.527Z,2.87
2018-10-04T19:58:11.018Z,3.37
2018-10-04T19:59:46.526Z,3.40
2018-10-04T20:01:21.992Z,3.10
2018-10-04T20:02:57.497Z,3.13
2018-10-04T20:04:33.227Z,3.87
2018-10-04T20:06:08.760Z,3.97
2018-10-04T20:07:44.277Z,5.47
2018-10-04T20:09:19.836Z,4.87
2018-10-04T20:10:55.360Z,3.43
2018-10-04T20:12:30.977Z,2.80
2018-10-04T20:14:06.520Z,5.33
2018-10-04T20:15:42.042Z,2.90
2018-10-04T20:17:17.568Z,3.33
2018-10-04T20:18:53.108Z,2.93
2018-10-04T20:20:28.651Z,3.43
2018-10-04T20:22:05.109Z,3.07
2018-10-04T20:23:40.648Z,3.57
2018-10-04T20:25:16.147Z,2.10
2018-10-04T20:26:51.618Z,4.77
2018-10-04T20:28:27.175Z,3.33
2018-10-04T20:30:02.666Z,2.27
2018-10-04T20:31:38.143Z,3.40
2018-10-04T20:33:13.653Z,2.97
2018-10-04T20:34:49.218Z,3.70
2018-10-04T20:36:24.629Z,4.77
2018-10-04T20:38:00.160Z,2.97
2018-10-04T20:39:36.149Z,6.97
2018-10-04T20:41:11.682Z,4.53
2018-10-04T20:42:47.180Z,3.43
2018-10-04T20:44:22.706Z,2.67
2018-10-04T20:45:58.212Z,2.67
2018-10-04T20:47:33.678Z,3.00
2018-10-04T20:49:09.265Z,3.53
2018-10-04T20:50:44.746Z,3.43
2018-10-04T20:52:21.113Z,2.30
2018-10-04T20:53:56.606Z,3.20
2018-10-04T20:55:32.083Z,3.70
2018-10-04T20:57:07.530Z,4.07
2018-10-04T20:58:43.326Z,2.27
2018-10-04T21:00:19.890Z,2.23
2018-10-04T21:01:55.346Z,2.73
2018-10-04T21:03:30.916Z,3.70
2018-10-04T21:05:06.763Z,2.73
2018-10-04T21:06:42.438Z,3.40
2018-10-04T21:08:17.892Z,3.73
2018-10-04T21:09:53.444Z,3.00
2018-10-04T21:11:28.906Z,3.27
2018-10-04T21:13:04.364Z,4.10
2018-10-04T21:14:39.837Z,2.57
2018-10-04T21:16:15.276Z,3.80
2018-10-04T21:17:50.796Z,2.57
2018-10-04T21:19:26.451Z,2.40